createdAt,value
2017-07-18T00:01:36.102Z,19.20
2017-07-18T00:04:03.622Z,19.10
2017-07-18T00:06:31.195Z,19.00
2017-07-18T00:08:58.736Z,18.90
2017-07-18T00:11:26.272Z,18.80
2017-07-18T00:13:53.790Z,18.70
2017-07-18T00:16:21.587Z,18.80
2017-07-18T00:18:49.664Z,18.90
2017-07-18T00:21:17.240Z,18.70
2017-07-18T00:23:45.091Z,18.60
2017-07-18T00:26:12.599Z,18.50
2017-07-18T00:28:40.269Z,18.50
2017-07-18T00:31:08.084Z,18.50
2017-07-18T00:33:35.635Z,18.60
2017-07-18T00:36:03.152Z,18.70
2017-07-18T00:38:30.733Z,18.70
2017-07-18T00:40:58.248Z,18.50
2017-07-18T00:43:25.786Z,18.40
2017-07-18T00:45:53.631Z,18.40
2017-07-18T00:48:21.768Z,18.30
2017-07-18T00:50:49.862Z,18.30
2017-07-18T00:53:17.403Z,18.20
2017-07-18T00:55:45.305Z,18.20
2017-07-18T00:58:12.835Z,18.20
2017-07-18T01:00:40.377Z,18.20
2017-07-18T01:03:07.951Z,18.20
2017-07-18T01:05:35.675Z,18.20
2017-07-18T01:08:03.176Z,18.30
2017-07-18T01:10:30.710Z,18.20
2017-07-18T01:12:58.723Z,18.00
2017-07-18T01:15:26.233Z,18.00
2017-07-18T01:17:53.775Z,17.80
2017-07-18T01:20:21.575Z,17.70
2017-07-18T01:22:49.104Z,17.70
2017-07-18T01:25:16.608Z,17.70
2017-07-18T01:27:44.418Z,17.70
2017-07-18T01:30:12.127Z,17.70
2017-07-18T01:32:39.697Z,17.60
2017-07-18T01:35:07.559Z,17.60
2017-07-18T01:37:35.072Z,17.50
2017-07-18T01:40:02.580Z,17.50
2017-07-18T01:42:30.108Z,17.50
2017-07-18T01:44:57.686Z,17.70
2017-07-18T01:47:25.219Z,17.70
2017-07-18T01:49:52.850Z,17.60
2017-07-18T01:52:20.361Z,17.50
2017-07-18T01:54:47.865Z,17.40
2017-07-18T01:57:15.670Z,17.30
2017-07-18T01:59:43.275Z,17.30
2017-07-18T02:02:10.897Z,17.20
2017-07-18T02:04:38.516Z,17.00
2017-07-18T02:07:06.095Z,16.90
2017-07-18T02:09:33.612Z,16.80
2017-07-18T02:12:01.201Z,16.80
2017-07-18T02:14:28.768Z,16.80
2017-07-18T02:16:56.631Z,16.70
2017-07-18T02:19:24.215Z,16.70
2017-07-18T02:21:51.734Z,16.60
2017-07-18T02:24:19.243Z,16.70
2017-07-18T02:26:47.027Z,16.70
2017-07-18T02:29:14.537Z,16.80
2017-07-18T02:31:42.187Z,16.80
2017-07-18T02:34:10.007Z,16.80
2017-07-18T02:36:37.840Z,16.70
2017-07-18T02:39:05.361Z,16.60
2017-07-18T02:41:32.948Z,16.70
2017-07-18T02:44:00.509Z,16.70
2017-07-18T02:46:28.057Z,16.70
2017-07-18T02:48:55.713Z,16.60
2017-07-18T02:51:23.237Z,16.50
2017-07-18T02:53:50.759Z,16.60
2017-07-18T02:56:18.502Z,16.70
2017-07-18T02:58:46.015Z,16.60
2017-07-18T03:01:13.799Z,16.60
2017-07-18T03:03:41.332Z,16.50
2017-07-18T03:06:08.862Z,16.50
2017-07-18T03:08:36.427Z,16.50
2017-07-18T03:11:03.948Z,16.50
2017-07-18T03:13:31.531Z,16.60
2017-07-18T03:15:59.368Z,16.50
2017-07-18T03:18:26.872Z,16.50
2017-07-18T03:33:42.247Z,16.50
2017-07-18T03:36:09.774Z,16.80
2017-07-18T03:38:37.602Z,16.80
2017-07-18T03:41:05.407Z,16.60
2017-07-18T03:43:32.974Z,16.50
2017-07-18T03:46:00.492Z,16.40
2017-07-18T03:48:28.445Z,16.50
2017-07-18T03:50:56.000Z,16.60
2017-07-18T03:53:23.682Z,16.60
2017-07-18T03:55:51.566Z,16.80
2017-07-18T03:58:19.257Z,16.90
2017-07-18T04:00:46.811Z,17.00
2017-07-18T04:03:14.907Z,17.10
2017-07-18T04:05:42.458Z,17.30
2017-07-18T04:08:10.156Z,17.40
2017-07-18T04:10:37.687Z,17.60
2017-07-18T04:13:05.635Z,17.70
2017-07-18T04:15:33.221Z,17.70
2017-07-18T04:18:00.784Z,17.80
2017-07-18T04:20:28.606Z,17.80
2017-07-18T04:22:56.265Z,17.80
2017-07-18T04:25:24.319Z,18.00
2017-07-18T04:27:51.963Z,18.20
2017-07-18T04:30:19.473Z,18.20
2017-07-18T04:32:47.537Z,18.20
2017-07-18T04:35:15.067Z,18.00
2017-07-18T04:37:42.584Z,17.90
2017-07-18T04:40:10.400Z,17.80
2017-07-18T04:42:37.913Z,17.80
2017-07-18T04:45:05.572Z,17.70
2017-07-18T04:47:33.419Z,17.60
2017-07-18T04:50:00.948Z,17.70
2017-07-18T04:52:28.527Z,17.80
2017-07-18T04:54:56.148Z,17.80
2017-07-18T04:57:23.658Z,17.80
2017-07-18T04:59:51.167Z,18.30
2017-07-18T05:02:18.744Z,19.40
2017-07-18T05:04:46.246Z,20.60
2017-07-18T05:07:13.857Z,21.70
2017-07-18T05:09:41.664Z,22.50
2017-07-18T05:12:09.191Z,23.10
2017-07-18T05:14:36.788Z,23.70
2017-07-18T05:17:04.308Z,24.30
2017-07-18T05:19:31.836Z,25.20
2017-07-18T05:21:59.437Z,25.60
2017-07-18T05:24:26.942Z,26.10
2017-07-18T05:26:54.770Z,26.30
2017-07-18T05:29:22.291Z,26.50
2017-07-18T05:31:49.838Z,26.80
2017-07-18T05:34:17.408Z,27.10
2017-07-18T05:36:45.090Z,26.90
2017-07-18T05:39:13.162Z,26.70
2017-07-18T05:41:40.885Z,26.90
2017-07-18T05:44:08.404Z,27.10
2017-07-18T05:46:35.972Z,27.30
2017-07-18T05:49:03.526Z,27.60
2017-07-18T05:51:31.172Z,28.00
2017-07-18T05:53:58.838Z,28.10
2017-07-18T05:56:26.349Z,28.20
2017-07-18T05:58:53.859Z,28.50
2017-07-18T06:01:21.204Z,28.70
2017-07-18T06:03:48.791Z,28.60
2017-07-18T06:06:16.462Z,29.10
2017-07-18T06:08:44.115Z,29.10
2017-07-18T06:11:11.630Z,29.20
2017-07-18T06:13:39.134Z,29.20
2017-07-18T06:16:06.480Z,28.90
2017-07-18T06:18:34.003Z,29.50
2017-07-18T06:21:01.533Z,29.60
2017-07-18T06:23:29.135Z,29.90
2017-07-18T06:25:56.647Z,29.90
2017-07-18T06:28:24.173Z,29.60
2017-07-18T06:30:51.720Z,29.30
2017-07-18T06:33:19.227Z,29.40
2017-07-18T06:35:46.759Z,29.80
2017-07-18T06:38:14.481Z,30.30
2017-07-18T06:40:42.181Z,30.10
2017-07-18T06:43:09.743Z,29.70
2017-07-18T06:45:37.565Z,30.00
2017-07-18T06:48:04.948Z,30.00
2017-07-18T06:50:32.472Z,30.40
2017-07-18T06:53:00.008Z,30.70
2017-07-18T06:55:27.931Z,31.40
2017-07-18T06:57:55.436Z,31.80
2017-07-18T07:00:22.955Z,31.80
2017-07-18T07:02:50.587Z,30.70
2017-07-18T07:05:18.094Z,31.40
2017-07-18T07:07:45.636Z,31.00
2017-07-18T07:10:13.500Z,31.50
2017-07-18T07:12:41.011Z,32.40
2017-07-18T07:15:08.523Z,33.00
2017-07-18T07:17:36.404Z,33.30
2017-07-18T07:20:03.974Z,33.50
2017-07-18T07:22:31.474Z,33.10
2017-07-18T07:24:59.072Z,33.40
2017-07-18T07:27:26.617Z,33.60
2017-07-18T07:29:54.178Z,32.60
2017-07-18T07:32:21.719Z,33.10
2017-07-18T07:34:49.222Z,32.70
2017-07-18T07:37:16.752Z,33.20
2017-07-18T07:39:44.413Z,33.30
2017-07-18T07:42:11.920Z,33.20
2017-07-18T07:44:39.432Z,33.00
2017-07-18T07:47:07.016Z,33.00
2017-07-18T07:49:34.519Z,32.00
2017-07-18T07:52:02.035Z,32.60
2017-07-18T07:54:29.976Z,33.10
2017-07-18T07:56:57.470Z,33.30
2017-07-18T07:59:25.095Z,33.60
2017-07-18T08:01:53.302Z,33.40
2017-07-18T08:04:22.058Z,33.10
2017-07-18T08:06:49.914Z,33.50
2017-07-18T08:09:17.767Z,34.80
2017-07-18T08:11:45.574Z,35.80
2017-07-18T08:14:13.251Z,35.80
2017-07-18T08:16:41.368Z,35.70
2017-07-18T08:19:08.790Z,35.80
2017-07-18T08:21:37.029Z,36.30
2017-07-18T08:24:04.560Z,36.10
2017-07-18T08:26:32.071Z,36.80
2017-07-18T08:28:59.643Z,37.10
2017-07-18T08:31:27.270Z,36.40
2017-07-18T08:33:54.770Z,36.30
2017-07-18T08:36:22.683Z,36.40
2017-07-18T08:41:26.931Z,34.10
2017-07-18T08:43:54.456Z,33.40
2017-07-18T08:46:21.957Z,34.10
2017-07-18T08:48:49.608Z,33.70
2017-07-18T08:51:17.104Z,35.10
2017-07-18T08:53:44.606Z,35.40
2017-07-18T08:56:12.331Z,36.10
2017-07-18T08:58:40.028Z,36.80
2017-07-18T09:01:07.746Z,36.40
2017-07-18T09:03:35.328Z,36.90
2017-07-18T09:06:02.835Z,36.60
2017-07-18T09:08:30.507Z,36.40
2017-07-18T09:10:58.092Z,36.40
2017-07-18T09:13:25.603Z,36.50
2017-07-18T09:15:53.102Z,36.60
2017-07-18T09:18:20.733Z,37.20
2017-07-18T09:20:48.242Z,37.40
2017-07-18T09:23:15.499Z,38.30
2017-07-18T09:25:42.951Z,38.70
2017-07-18T09:28:10.479Z,39.20
2017-07-18T09:30:37.817Z,37.60
2017-07-18T09:33:05.723Z,37.20
2017-07-18T09:35:33.215Z,36.70
2017-07-18T09:38:00.732Z,37.50
2017-07-18T09:40:28.352Z,38.10
2017-07-18T09:42:55.850Z,38.30
2017-07-18T09:45:23.351Z,37.40
2017-07-18T09:47:50.910Z,37.60
2017-07-18T09:50:18.557Z,38.00
2017-07-18T09:52:46.059Z,38.70
2017-07-18T09:55:13.624Z,38.50
2017-07-18T09:57:41.120Z,38.30
2017-07-18T10:00:08.619Z,38.20
2017-07-18T10:02:36.210Z,36.60
2017-07-18T10:05:03.743Z,35.80
2017-07-18T10:07:31.272Z,36.50
2017-07-18T10:09:58.826Z,36.70
2017-07-18T10:12:26.432Z,36.10
2017-07-18T10:14:56.283Z,36.60
2017-07-18T10:17:23.867Z,36.70
2017-07-18T10:19:51.358Z,37.70
2017-07-18T10:22:18.909Z,39.00
2017-07-18T10:24:46.398Z,39.20
2017-07-18T10:27:13.918Z,38.90
2017-07-18T10:29:41.798Z,39.50
2017-07-18T10:32:09.299Z,38.50
2017-07-18T10:34:36.853Z,38.50
2017-07-18T10:37:04.752Z,39.00
2017-07-18T10:39:32.251Z,38.70
2017-07-18T10:41:59.822Z,38.90
2017-07-18T10:44:27.406Z,39.00
2017-07-18T10:46:54.982Z,37.70
2017-07-18T10:49:22.483Z,37.20
2017-07-18T10:51:50.330Z,36.60
2017-07-18T10:54:17.830Z,36.90
2017-07-18T10:56:45.318Z,37.00
2017-07-18T10:59:13.323Z,38.20
2017-07-18T11:01:41.028Z,38.00
2017-07-18T11:04:08.738Z,37.40
2017-07-18T11:06:36.287Z,37.00
2017-07-18T11:09:03.794Z,37.90
2017-07-18T11:11:31.326Z,38.30
2017-07-18T11:13:59.119Z,38.10
2017-07-18T11:16:26.679Z,38.00
2017-07-18T11:18:54.179Z,37.50
2017-07-18T11:21:21.867Z,38.50
2017-07-18T11:23:49.379Z,38.80
2017-07-18T11:26:17.483Z,39.30
2017-07-18T11:28:45.272Z,39.80
2017-07-18T11:31:12.867Z,40.10
2017-07-18T11:33:40.387Z,40.10
2017-07-18T11:36:08.280Z,39.60
2017-07-18T11:38:35.790Z,38.10
2017-07-18T11:41:03.290Z,37.00
2017-07-18T11:43:30.839Z,36.50
2017-07-18T11:45:58.428Z,36.50
2017-07-18T11:48:25.959Z,37.10
2017-07-18T11:50:53.503Z,38.30
2017-07-18T11:53:21.019Z,39.00
2017-07-18T11:55:48.522Z,37.60
2017-07-18T11:58:16.139Z,36.10
2017-07-18T12:00:43.723Z,35.50
2017-07-18T12:03:11.246Z,35.20
2017-07-18T12:05:38.836Z,35.30
2017-07-18T12:08:06.394Z,34.60
2017-07-18T12:10:33.902Z,34.50
2017-07-18T12:13:01.455Z,35.20
2017-07-18T12:15:28.956Z,35.90
2017-07-18T12:17:56.459Z,36.90
2017-07-18T12:20:24.009Z,37.80
2017-07-18T12:22:51.708Z,37.40
2017-07-18T12:25:19.258Z,37.20
2017-07-18T12:27:46.855Z,37.70
2017-07-18T12:30:14.359Z,36.30
2017-07-18T12:32:41.859Z,36.10
2017-07-18T12:35:09.418Z,35.20
2017-07-18T12:37:36.914Z,34.30
2017-07-18T12:40:04.425Z,33.50
2017-07-18T12:42:32.216Z,33.30
2017-07-18T12:44:59.574Z,33.20
2017-07-18T12:47:27.155Z,34.60
2017-07-18T12:49:54.870Z,35.90
2017-07-18T12:52:22.863Z,36.20
2017-07-18T12:54:50.643Z,36.20
2017-07-18T12:57:18.239Z,36.20
2017-07-18T12:59:45.960Z,37.10
2017-07-18T13:02:13.515Z,37.60
2017-07-18T13:04:41.031Z,38.40
2017-07-18T13:07:08.618Z,39.60
2017-07-18T13:09:36.132Z,40.00
2017-07-18T13:12:03.676Z,40.00
2017-07-18T13:14:31.260Z,40.50
2017-07-18T13:16:58.771Z,40.60
2017-07-18T13:19:26.326Z,40.00
2017-07-18T13:21:54.182Z,39.30
2017-07-18T13:24:21.742Z,39.50
2017-07-18T13:26:49.246Z,39.00
2017-07-18T13:29:17.197Z,38.00
2017-07-18T13:31:44.956Z,38.70
2017-07-18T13:34:12.580Z,38.30
2017-07-18T13:36:40.288Z,37.60
2017-07-18T13:39:08.130Z,37.70
2017-07-18T13:41:35.754Z,37.50
2017-07-18T13:44:03.582Z,37.80
2017-07-18T13:46:31.315Z,37.90
2017-07-18T13:48:58.924Z,38.60
2017-07-18T13:51:26.471Z,39.60
2017-07-18T13:53:53.850Z,39.30
2017-07-18T13:56:21.674Z,37.50
2017-07-18T13:58:49.454Z,38.60
2017-07-18T14:01:17.092Z,39.20
2017-07-18T14:03:44.762Z,39.80
2017-07-18T14:06:12.284Z,40.00
2017-07-18T14:08:40.088Z,39.30
2017-07-18T14:11:08.045Z,37.10
2017-07-18T14:13:35.888Z,37.10
2017-07-18T14:16:03.399Z,37.60
2017-07-18T14:18:30.944Z,37.70
2017-07-18T14:20:58.760Z,37.80
2017-07-18T14:23:26.503Z,38.30
2017-07-18T14:25:54.090Z,38.50
2017-07-18T14:28:21.601Z,38.90
2017-07-18T14:30:49.198Z,38.90
2017-07-18T14:33:17.048Z,37.30
2017-07-18T14:35:44.563Z,36.80
2017-07-18T14:38:12.152Z,36.70
2017-07-18T14:40:39.895Z,36.50
2017-07-18T14:43:07.394Z,35.90
2017-07-18T14:45:35.585Z,35.50
2017-07-18T14:48:03.150Z,35.10
2017-07-18T14:50:30.988Z,35.10
2017-07-18T14:52:58.595Z,35.00
2017-07-18T14:55:26.325Z,35.00
2017-07-18T14:57:54.132Z,35.00
2017-07-18T15:00:21.792Z,35.20
2017-07-18T15:02:49.556Z,35.70
2017-07-18T15:05:17.330Z,36.30
2017-07-18T15:07:45.359Z,36.60
2017-07-18T15:10:13.596Z,37.10
2017-07-18T15:12:41.508Z,37.90
2017-07-18T15:15:09.006Z,38.70
2017-07-18T15:17:36.743Z,38.70
2017-07-18T15:20:04.584Z,39.00
2017-07-18T15:22:32.238Z,38.90
2017-07-18T15:24:59.998Z,38.00
2017-07-18T15:27:27.778Z,38.20
2017-07-18T15:29:55.391Z,38.00
2017-07-18T15:32:23.153Z,36.70
2017-07-18T15:34:50.930Z,37.00
2017-07-18T15:37:18.587Z,37.20
2017-07-18T15:39:46.271Z,37.40
2017-07-18T15:42:13.872Z,37.50
2017-07-18T15:44:41.606Z,37.00
2017-07-18T15:47:09.850Z,37.60
2017-07-18T15:49:37.480Z,37.60
2017-07-18T15:52:04.987Z,37.50
2017-07-18T15:54:33.527Z,37.00
2017-07-18T15:57:01.313Z,37.20
2017-07-18T15:59:28.962Z,37.10
2017-07-18T16:01:56.721Z,36.70
2017-07-18T16:04:24.518Z,36.30
2017-07-18T16:06:52.052Z,36.30
2017-07-18T16:09:19.597Z,36.10
2017-07-18T16:11:47.412Z,36.20
2017-07-18T16:14:15.203Z,36.40
2017-07-18T16:16:43.538Z,36.20
2017-07-18T16:19:11.124Z,36.00
2017-07-18T16:21:38.799Z,36.30
2017-07-18T16:24:06.496Z,36.50
2017-07-18T16:26:34.762Z,36.50
2017-07-18T16:29:02.568Z,36.40
2017-07-18T16:31:30.236Z,35.80
2017-07-18T16:33:57.973Z,36.10
2017-07-18T16:36:25.793Z,36.60
2017-07-18T16:38:53.459Z,36.60
2017-07-18T16:41:20.984Z,36.20
2017-07-18T16:43:48.515Z,36.10
2017-07-18T16:46:16.384Z,36.00
2017-07-18T16:48:43.882Z,36.10
2017-07-18T16:51:11.380Z,36.20
2017-07-18T16:53:38.947Z,35.80
2017-07-18T16:56:07.394Z,35.30
2017-07-18T16:58:34.899Z,35.20
2017-07-18T17:01:02.495Z,35.20
2017-07-18T17:03:30.028Z,35.10
2017-07-18T17:05:57.641Z,34.90
2017-07-18T17:08:25.199Z,35.00
2017-07-18T17:10:52.725Z,35.30
2017-07-18T17:13:19.983Z,35.30
2017-07-18T17:15:47.786Z,35.30
2017-07-18T17:18:16.076Z,35.40
2017-07-18T17:20:43.752Z,35.10
2017-07-18T17:23:11.466Z,34.70
2017-07-18T17:25:38.978Z,34.40
2017-07-18T17:28:06.491Z,34.40
2017-07-18T17:30:34.355Z,34.20
2017-07-18T17:33:01.860Z,34.00
2017-07-18T17:35:29.358Z,33.50
2017-07-18T17:37:57.041Z,33.20
2017-07-18T17:40:24.553Z,32.80
2017-07-18T17:42:52.065Z,32.80
2017-07-18T17:45:19.599Z,32.80
2017-07-18T17:47:47.104Z,32.90
2017-07-18T17:50:14.663Z,32.80
2017-07-18T17:52:42.435Z,32.30
2017-07-18T17:55:09.966Z,32.00
2017-07-18T17:57:37.520Z,31.80
2017-07-18T18:00:05.438Z,31.70
2017-07-18T18:02:32.939Z,31.70
2017-07-18T18:05:00.443Z,31.50
2017-07-18T18:07:28.334Z,31.40
2017-07-18T18:09:55.867Z,31.20
2017-07-18T18:12:23.371Z,31.00
2017-07-18T18:14:51.322Z,30.90
2017-07-18T18:17:18.847Z,30.80
2017-07-18T18:19:46.371Z,30.80
2017-07-18T18:22:14.401Z,30.80
2017-07-18T18:24:42.009Z,30.80
2017-07-18T18:27:09.637Z,30.90
2017-07-18T18:29:37.865Z,30.90
2017-07-18T18:32:05.501Z,30.90
2017-07-18T18:34:33.075Z,30.90
2017-07-18T18:37:00.711Z,31.00
2017-07-18T18:39:28.511Z,31.10
2017-07-18T18:41:56.203Z,31.00
2017-07-18T18:44:23.899Z,30.80
2017-07-18T18:46:51.455Z,30.70
2017-07-18T18:49:18.959Z,30.50
2017-07-18T18:51:47.007Z,30.20
2017-07-18T18:54:14.641Z,29.90
2017-07-18T18:56:42.142Z,29.80
2017-07-18T18:59:09.867Z,29.50
2017-07-18T19:01:37.647Z,29.30
2017-07-18T19:04:05.287Z,29.20
2017-07-18T19:06:32.991Z,29.10
2017-07-18T19:09:00.506Z,28.80
2017-07-18T19:11:28.008Z,28.60
2017-07-18T19:13:55.934Z,28.50
2017-07-18T19:16:23.203Z,28.40
2017-07-18T19:18:50.699Z,28.30
2017-07-18T19:21:18.283Z,28.20
2017-07-18T19:23:45.787Z,28.20
2017-07-18T19:26:13.283Z,28.00
2017-07-18T19:28:41.139Z,28.00
2017-07-18T19:31:10.007Z,27.80
2017-07-18T19:33:37.512Z,27.70
2017-07-18T19:36:05.569Z,27.60
2017-07-18T19:38:33.164Z,27.60
2017-07-18T19:41:00.675Z,27.40
2017-07-18T19:43:28.173Z,27.40
2017-07-18T19:45:55.975Z,27.30
2017-07-18T19:48:23.305Z,27.20
2017-07-18T19:50:50.807Z,27.20
2017-07-18T19:53:18.592Z,27.10
2017-07-18T19:55:46.955Z,26.90
2017-07-18T19:58:14.461Z,27.00
2017-07-18T20:00:42.531Z,27.00
2017-07-18T20:03:10.248Z,26.90
2017-07-18T20:05:37.912Z,27.00
2017-07-18T20:08:05.881Z,27.00
2017-07-18T20:10:33.408Z,26.90
2017-07-18T20:13:00.927Z,26.80
2017-07-18T20:15:29.075Z,26.70
2017-07-18T20:17:56.671Z,26.60
2017-07-18T20:20:24.199Z,26.50
2017-07-18T20:22:51.922Z,26.40
2017-07-18T20:25:19.451Z,26.40
2017-07-18T20:27:46.982Z,26.50
2017-07-18T20:30:14.866Z,26.50
2017-07-18T20:32:42.365Z,26.50
2017-07-18T20:35:09.998Z,26.40
2017-07-18T20:37:37.587Z,26.30
2017-07-18T20:40:05.127Z,26.40
2017-07-18T20:42:32.790Z,26.30
2017-07-18T20:45:00.399Z,26.30
2017-07-18T20:47:27.899Z,26.20
2017-07-18T20:49:55.398Z,26.10
2017-07-18T20:52:23.006Z,26.10
2017-07-18T20:54:51.290Z,26.00
2017-07-18T20:57:18.824Z,26.00
2017-07-18T20:59:46.591Z,25.80
2017-07-18T21:02:14.095Z,25.90
2017-07-18T21:04:41.595Z,25.90
2017-07-18T21:07:09.442Z,25.90
2017-07-18T21:09:36.941Z,25.80
2017-07-18T21:12:04.841Z,25.90
2017-07-18T21:14:32.660Z,25.70
2017-07-18T21:17:00.695Z,25.50
2017-07-18T21:19:28.207Z,25.50
2017-07-18T21:21:55.763Z,25.40
2017-07-18T21:24:23.894Z,25.30
2017-07-18T21:26:51.403Z,25.20
2017-07-18T21:29:19.263Z,25.20
2017-07-18T21:31:46.833Z,25.20
2017-07-18T21:34:14.358Z,25.10
2017-07-18T21:36:41.915Z,25.10
2017-07-18T21:39:09.407Z,25.10
2017-07-18T21:41:36.915Z,25.00
2017-07-18T21:44:04.758Z,25.10
2017-07-18T21:46:32.375Z,25.00
2017-07-18T21:48:59.887Z,24.90
2017-07-18T21:51:27.700Z,24.70
2017-07-18T21:53:55.215Z,24.60
2017-07-18T21:56:22.710Z,24.50
2017-07-18T21:58:50.491Z,24.40
2017-07-18T22:01:18.003Z,24.40
2017-07-18T22:03:45.534Z,24.40
2017-07-18T22:06:13.100Z,24.40
2017-07-18T22:08:40.605Z,24.30
2017-07-18T22:11:08.219Z,24.20
2017-07-18T22:13:35.775Z,24.00
2017-07-18T22:16:03.280Z,23.90
2017-07-18T22:18:30.791Z,23.80
2017-07-18T22:20:58.811Z,23.70
2017-07-18T22:23:26.311Z,23.70
2017-07-18T22:25:53.802Z,23.80
2017-07-18T22:28:21.347Z,23.80
2017-07-18T22:30:48.851Z,23.80
2017-07-18T22:33:16.349Z,23.80
2017-07-18T22:35:43.895Z,23.80
2017-07-18T22:38:11.403Z,23.70
2017-07-18T22:40:38.902Z,23.70
2017-07-18T22:43:06.430Z,23.70
2017-07-18T22:45:33.945Z,23.60
2017-07-18T22:48:01.520Z,23.70
2017-07-18T22:50:29.030Z,23.60
2017-07-18T22:52:56.582Z,23.60
2017-07-18T22:55:24.122Z,23.60
2017-07-18T22:57:51.633Z,23.60
2017-07-18T23:00:19.142Z,23.50
2017-07-18T23:02:46.666Z,23.40
2017-07-18T23:05:14.194Z,23.30
2017-07-18T23:07:41.811Z,23.30
2017-07-18T23:10:09.313Z,23.20
2017-07-18T23:12:36.831Z,23.10
2017-07-18T23:15:04.639Z,23.10
2017-07-18T23:17:32.154Z,23.00
2017-07-18T23:19:59.650Z,23.00
2017-07-18T23:22:27.529Z,22.80
2017-07-18T23:24:55.103Z,22.70
2017-07-18T23:27:22.659Z,22.60
2017-07-18T23:29:50.216Z,22.50
2017-07-18T23:32:17.715Z,22.50
2017-07-18T23:34:45.234Z,22.40
2017-07-18T23:37:12.860Z,22.40
2017-07-18T23:39:40.361Z,22.40
2017-07-18T23:42:07.871Z,22.40
2017-07-18T23:44:35.435Z,22.30
2017-07-18T23:47:02.935Z,22.20
2017-07-18T23:49:30.451Z,22.10
2017-07-18T23:51:58.067Z,22.00
2017-07-18T23:54:25.570Z,22.00
2017-07-18T23:56:53.068Z,21.90
2017-07-18T23:59:20.919Z,21.80
